Zephyrhills, FL

8:54 PM EDT on September 30, 2014 (GMT -0400)
Zephyrhills Municipal | Change Station
CLOSE
Current Station
Airport
Location: Zephyrhills,
Elevation: 89 ft
Nearby Weather Stations

Elev 89 ft 28.23 °N, 82.16 °W | Updated 19 minutes ago

Overcast
Overcast
73 °F
Feels Like 73 °F
N
0
Wind Variable Wind from North

Today
High -- | Low -- °F
--% Chance of Precip.
Yesterday
High -- | Low -- °F
Precip. -- in
7:21 AM 7:15 PM
Waxing Crescent, 42% visible
Pressure 29.86 in
Visibility 10.0 miles
Clouds Mostly Cloudy 2800 ft
Mostly Cloudy 3500 ft
Overcast 4100 ft
Dew Point 73 °F
Humidity 100%
Rainfall 0.35 in
Snow Depth Not available.
UV 0 out of 12
Pollen 5.00 out of 12
Air Quality Not available.
Flu Activity Not available.
METAR KZPH 010035Z AUTO 00000KT 10SM BKN028 BKN035 OVC041 23/23 A2986 RMK AO2

More Conditions Fewer Conditions

Pressure 29.86 in
Visibility 10.0 miles
Clouds Mostly Cloudy 2800 ft
Mostly Cloudy 3500 ft
Overcast 4100 ft
Dew Point 73 °F
Humidity 100%
Rainfall 0.35 in
Snow Depth Not available.
UV 0 out of 12
Pollen 5.00 out of 12
Air Quality Not available.
Flu Activity Not available.
METAR KZPH 010035Z AUTO 00000KT 10SM BKN028 BKN035 OVC041 23/23 A2986 RMK AO2

More Conditions Fewer Conditions

10-Day Weather Forecast

Almanac

Astronomy

Sep. 30, 2014 Rise Set
Actual Time 7:21 AM EDT 7:15 PM EDT
Civil Twilight 6:57 AM EDT 7:39 PM EDT
Nautical Twilight 6:30 AM EDT 8:06 PM EDT
Astronomical Twilight 6:02 AM EDT 8:33 PM EDT
Moon 1:05 PM EDT (9/30) No Moon Set
Length of Visible Light 12h 41m
Length of Day
11h 54m
Tomorrow will be 1m 41s shorter.
Waxing Crescent, 42% of the Moon is Illuminated
Today
Waxing Crescent
Oct 1
First Quarter
Oct 8
Full
Oct 15
Last Quarter
Oct 23
New

Today's Extremes

State Highs State Lows

Community

WunderPhotos

Upload Photos

1,757,801 photos uploaded!

Nearby

Snow Depth

Station Depth Elevation
No new snow has been reported.

Earthquake Activity

City Distance Mag. Time & Date
No recent earthquake activity has been reported nearby.
Minimum magnitude displayed is 2.5.

Coastal Water Temperatures

Place Temperature
St Petersburg, FL 86.0 °F
Old Port Tampa, FL 84.0 °F
McKay Bay Entrance, FL 84.9 °F

Nearby Weather Stations